Svyataya Anna — UUCV — position and weather

sailwx.info

Track history (hours):
 
Tides and Currents Weather Stations Pressure Air Temp Water Temp Dewpoint Dewpoint Depression Visibility Wind Speed Wind Dir Waves Ship Positions

Svyataya Anna

Last reported at 2017-Jul-18 22:51 UTC. Time now 2017-Jul-24 08:42 UTC.
Position N 46°16' E 030°54'.

Length 93 m; draft 3.3 m.

Type: Cargo ship. MMSI: 272068800.

Date/timePositionNaut miles runAvg speedWind from/ knotsBaromVisibWave heightAir tempDewpointWater temp
2017-Jul-18 22:51N 46°16' E 030°54'2 5.4
2017-Jul-18 22:25N 46°17' E 030°56'2 5.5
2017-Jul-18 22:00N 46°19' E 030°59'3 5.5
2017-Jul-18 21:30N 46°21' E 031°02'5 5.4
2017-Jul-18 20:34N 46°24' E 031°07'2 5.4
2017-Jul-18 20:17N 46°25' E 031°09'26 4.5
2017-Jul-18 14:32N 46°36' E 031°43'0 0.0
2017-Jul-18 05:02N 46°36' E 031°43'0 0.1
2017-Jul-18 04:58N 46°36' E 031°43'0 0.0
2017-Jul-18 04:16N 46°36' E 031°43'0 0.0
2017-Jul-18 04:00N 46°36' E 031°43'0 0.0
2017-Jul-18 03:30N 46°36' E 031°43'0 0.0
2017-Jul-18 03:00N 46°36' E 031°43'0 0.0
2017-Jul-18 01:38N 46°36' E 031°43'0 0.0
2017-Jul-18 01:10N 46°36' E 031°43'0 0.0
2017-Jul-18 01:00N 46°36' E 031°43'0 0.0
2017-Jul-18 00:27N 46°36' E 031°43'0 0.0
2017-Jul-18 00:00N 46°36' E 031°43'0 0.0
2017-Jul-17 23:30N 46°36' E 031°43'0 0.0
2017-Jul-17 22:50N 46°36' E 031°43'0 0.0
2017-Jul-17 22:25N 46°36' E 031°43'0 0.0
2017-Jul-17 22:00N 46°36' E 031°43'0 0.0
2017-Jul-17 21:30N 46°36' E 031°43'0 0.0
2017-Jul-17 21:00N 46°36' E 031°43'0 0.0
2017-Jul-17 20:16N 46°36' E 031°43'0 0.0
2017-Jul-17 19:51N 46°36' E 031°43'0 0.0
2017-Jul-17 19:30N 46°36' E 031°43'0 0.0
2017-Jul-17 18:36N 46°36' E 031°43'0 0.0
2017-Jul-17 18:28N 46°36' E 031°43'0 0.0
2017-Jul-17 17:19N 46°36' E 031°43'0 0.0
2017-Jul-17 17:00N 46°36' E 031°43'0 0.0
2017-Jul-17 14:52N 46°36' E 031°43'0 0.0
2017-Jul-17 11:44N 46°36' E 031°43'6 1.3
2017-Jul-17 07:00N 46°35' E 031°52'2 4.7
2017-Jul-17 06:30N 46°34' E 031°55'2 4.7
2017-Jul-17 06:00N 46°33' E 031°58'3 4.7
2017-Jul-17 05:28N 46°32' E 032°02'9 5.2
2017-Jul-17 03:39N 46°33' E 032°15'1 6.1
2017-Jul-17 03:29N 46°33' E 032°17'120 2.8
2017-Jul-15 08:12N 47°32' E 034°51'7 5.2
2017-Jul-15 06:55N 47°34' E 035°00'2 5.0
2017-Jul-15 06:30N 47°36' E 035°02'3 5.3
2017-Jul-15 05:58N 47°38' E 035°05'3 5.5
2017-Jul-15 05:31N 47°40' E 035°07'3 5.6
2017-Jul-15 05:00N 47°43' E 035°08'3 5.2
2017-Jul-15 04:31N 47°45' E 035°10'3 5.3
2017-Jul-15 04:01N 47°48' E 035°10'3 5.1
2017-Jul-15 03:31N 47°50' E 035°07'2 4.9
2017-Jul-15 03:00N 47°52' E 035°05'0 0.8
2017-Jul-15 02:31N 47°52' E 035°06'0 1.0
2017-Jul-15 02:01N 47°52' E 035°06'0 0.6
2017-Jul-15 01:30N 47°52' E 035°06'0 0.0
2017-Jul-13 04:49N 47°52' E 035°06'0 0.0
2017-Jul-13 04:30N 47°52' E 035°06'1 1.4
2017-Jul-13 04:00N 47°52' E 035°06'0 0.2
2017-Jul-13 03:29N 47°52' E 035°05'0 0.4
2017-Jul-13 03:00N 47°52' E 035°05'2 4.7
2017-Jul-13 02:30N 47°50' E 035°07'2 4.5
2017-Jul-13 02:00N 47°48' E 035°10'0 0.0
2017-Jul-13 01:30N 47°48' E 035°10'0 0.0
2017-Jul-13 01:00N 47°48' E 035°10'0 0.0
2017-Jul-13 00:30N 47°48' E 035°10'0 0.0
2017-Jul-13 00:00N 47°48' E 035°10'0 0.0
2017-Jul-12 23:30N 47°48' E 035°10'0 0.0
2017-Jul-12 23:00N 47°48' E 035°10'0 0.0
2017-Jul-12 22:30N 47°48' E 035°10'0 0.0
2017-Jul-12 22:00N 47°48' E 035°10'0 0.0
2017-Jul-12 21:30N 47°48' E 035°10'0 0.0
2017-Jul-12 21:00N 47°48' E 035°10'0 0.0
2017-Jul-12 20:30N 47°48' E 035°10'0 0.0
2017-Jul-12 20:00N 47°48' E 035°10'0 0.0
2017-Jul-12 19:30N 47°48' E 035°10'0 0.0
2017-Jul-12 19:00N 47°48' E 035°10'0 0.0
2017-Jul-12 18:30N 47°48' E 035°10'0 0.0
2017-Jul-12 18:00N 47°48' E 035°10'1 2.0
2017-Jul-12 17:30N 47°47' E 035°10'3 6.1
2017-Jul-12 17:00N 47°44' E 035°10'3 5.5
2017-Jul-12 16:30N 47°42' E 035°08'3 5.4
2017-Jul-12 16:00N 47°39' E 035°07'3 5.0
2017-Jul-12 15:30N 47°38' E 035°04'2 4.8
2017-Jul-12 15:00N 47°35' E 035°03'9 4.8
2017-Jul-12 13:10N 47°32' E 034°51'2 5.1
2017-Jul-12 12:47N 47°31' E 034°48'35 4.4
2017-Jul-12 04:57N 47°20' E 033°60'2 5.0
2017-Jul-12 04:30N 47°18' E 033°58'2 5.0
2017-Jul-12 04:00N 47°16' E 033°56'3 5.1
2017-Jul-12 03:26N 47°13' E 033°54'2 5.4
2017-Jul-12 03:00N 47°11' E 033°53'3 5.4
2017-Jul-12 02:30N 47°09' E 033°51'3 5.4
2017-Jul-12 01:54N 47°06' E 033°48'2 5.2
2017-Jul-12 01:28N 47°04' E 033°46'4 5.3
2017-Jul-12 00:46N 47°01' E 033°43'12 5.0
2017-Jul-11 22:20N 46°51' E 033°33'2 5.1
2017-Jul-11 22:00N 46°50' E 033°31'3 5.2
2017-Jul-11 21:31N 46°49' E 033°27'3 5.0
2017-Jul-11 21:00N 46°48' E 033°25'2 3.6
2017-Jul-11 20:31N 46°47' E 033°23'35 2.1
2017-Jul-11 03:36N 46°36' E 032°34'2 5.5
2017-Jul-11 03:16N 46°36' E 032°31'3 5.4
2017-Jul-11 02:43N 46°34' E 032°27'1 4.8
2017-Jul-11 02:30N 46°33' E 032°26'0 0.1
2017-Jul-11 02:00N 46°33' E 032°26'0 0.1
2017-Jul-11 01:30N 46°33' E 032°26'0 0.0
2017-Jul-11 00:57N 46°33' E 032°26'0 0.0
2017-Jul-11 00:01N 46°33' E 032°26'0 0.0
2017-Jul-11 00:00N 46°33' E 032°26'0 0.0
2017-Jul-10 23:19N 46°33' E 032°26'3 0.7
2017-Jul-10 19:20N 46°33' E 032°22'2 5.6
2017-Jul-10 18:56N 46°33' E 032°19'8 5.0
2017-Jul-10 17:26N 46°32' E 032°08'7 0.7
2017-Jul-10 06:18N 46°34' E 031°58'1 5.0
2017-Jul-10 06:01N 46°34' E 031°56'2 5.0
2017-Jul-10 05:31N 46°35' E 031°52'3 5.2
2017-Jul-10 04:51N 46°36' E 031°47'2 6.4
2017-Jul-10 04:30N 46°36' E 031°44'3 6.2
2017-Jul-10 04:00N 46°36' E 031°40'3 6.2
2017-Jul-10 03:30N 46°35' E 031°35'3 5.7
2017-Jul-10 03:00N 46°35' E 031°31'2 4.1
2017-Jul-10 02:31N 46°35' E 031°28'  
Track history (hours):
 
Tides and Currents Weather Stations Pressure Air Temp Water Temp Dewpoint Dewpoint Depression Visibility Wind Speed Wind Dir Waves Ship Positions

Svyataya Anna

Last reported at 2017-Jul-18 22:51 UTC. Time now 2017-Jul-24 08:42 UTC.
Position N 46°16' E 030°54'.

Length 93 m; draft 3.3 m.

Type: Cargo ship. MMSI: 272068800.

Date/timePositionNaut miles runAvg speedWind from/ knotsBaromVisibWave heightAir tempDewpointWater temp
2017-Jul-18 22:51N 46°16' E 030°54'2 5.4
2017-Jul-18 22:25N 46°17' E 030°56'2 5.5
2017-Jul-18 22:00N 46°19' E 030°59'3 5.5
2017-Jul-18 21:30N 46°21' E 031°02'5 5.4
2017-Jul-18 20:34N 46°24' E 031°07'2 5.4
2017-Jul-18 20:17N 46°25' E 031°09'26 4.5
2017-Jul-18 14:32N 46°36' E 031°43'0 0.0
2017-Jul-18 05:02N 46°36' E 031°43'0 0.1
2017-Jul-18 04:58N 46°36' E 031°43'0 0.0
2017-Jul-18 04:16N 46°36' E 031°43'0 0.0
2017-Jul-18 04:00N 46°36' E 031°43'0 0.0
2017-Jul-18 03:30N 46°36' E 031°43'0 0.0
2017-Jul-18 03:00N 46°36' E 031°43'0 0.0
2017-Jul-18 01:38N 46°36' E 031°43'0 0.0
2017-Jul-18 01:10N 46°36' E 031°43'0 0.0
2017-Jul-18 01:00N 46°36' E 031°43'0 0.0
2017-Jul-18 00:27N 46°36' E 031°43'0 0.0
2017-Jul-18 00:00N 46°36' E 031°43'0 0.0
2017-Jul-17 23:30N 46°36' E 031°43'0 0.0
2017-Jul-17 22:50N 46°36' E 031°43'0 0.0
2017-Jul-17 22:25N 46°36' E 031°43'0 0.0
2017-Jul-17 22:00N 46°36' E 031°43'0 0.0
2017-Jul-17 21:30N 46°36' E 031°43'0 0.0
2017-Jul-17 21:00N 46°36' E 031°43'0 0.0
2017-Jul-17 20:16N 46°36' E 031°43'0 0.0
2017-Jul-17 19:51N 46°36' E 031°43'0 0.0
2017-Jul-17 19:30N 46°36' E 031°43'0 0.0
2017-Jul-17 18:36N 46°36' E 031°43'0 0.0
2017-Jul-17 18:28N 46°36' E 031°43'0 0.0
2017-Jul-17 17:19N 46°36' E 031°43'0 0.0
2017-Jul-17 17:00N 46°36' E 031°43'0 0.0
2017-Jul-17 14:52N 46°36' E 031°43'0 0.0
2017-Jul-17 11:44N 46°36' E 031°43'6 1.3
2017-Jul-17 07:00N 46°35' E 031°52'2 4.7
2017-Jul-17 06:30N 46°34' E 031°55'2 4.7
2017-Jul-17 06:00N 46°33' E 031°58'3 4.7
2017-Jul-17 05:28N 46°32' E 032°02'9 5.2
2017-Jul-17 03:39N 46°33' E 032°15'1 6.1
2017-Jul-17 03:29N 46°33' E 032°17'120 2.8
2017-Jul-15 08:12N 47°32' E 034°51'7 5.2
2017-Jul-15 06:55N 47°34' E 035°00'2 5.0
2017-Jul-15 06:30N 47°36' E 035°02'3 5.3
2017-Jul-15 05:58N 47°38' E 035°05'3 5.5
2017-Jul-15 05:31N 47°40' E 035°07'3 5.6
2017-Jul-15 05:00N 47°43' E 035°08'3 5.2
2017-Jul-15 04:31N 47°45' E 035°10'3 5.3
2017-Jul-15 04:01N 47°48' E 035°10'3 5.1
2017-Jul-15 03:31N 47°50' E 035°07'2 4.9
2017-Jul-15 03:00N 47°52' E 035°05'0 0.8
2017-Jul-15 02:31N 47°52' E 035°06'0 1.0
2017-Jul-15 02:01N 47°52' E 035°06'0 0.6
2017-Jul-15 01:30N 47°52' E 035°06'0 0.0
2017-Jul-13 04:49N 47°52' E 035°06'0 0.0
2017-Jul-13 04:30N 47°52' E 035°06'1 1.4
2017-Jul-13 04:00N 47°52' E 035°06'0 0.2
2017-Jul-13 03:29N 47°52' E 035°05'0 0.4
2017-Jul-13 03:00N 47°52' E 035°05'2 4.7
2017-Jul-13 02:30N 47°50' E 035°07'2 4.5
2017-Jul-13 02:00N 47°48' E 035°10'0 0.0
2017-Jul-13 01:30N 47°48' E 035°10'0 0.0
2017-Jul-13 01:00N 47°48' E 035°10'0 0.0
2017-Jul-13 00:30N 47°48' E 035°10'0 0.0
2017-Jul-13 00:00N 47°48' E 035°10'0 0.0
2017-Jul-12 23:30N 47°48' E 035°10'0 0.0
2017-Jul-12 23:00N 47°48' E 035°10'0 0.0
2017-Jul-12 22:30N 47°48' E 035°10'0 0.0
2017-Jul-12 22:00N 47°48' E 035°10'0 0.0
2017-Jul-12 21:30N 47°48' E 035°10'0 0.0
2017-Jul-12 21:00N 47°48' E 035°10'0 0.0
2017-Jul-12 20:30N 47°48' E 035°10'0 0.0
2017-Jul-12 20:00N 47°48' E 035°10'0 0.0
2017-Jul-12 19:30N 47°48' E 035°10'0 0.0
2017-Jul-12 19:00N 47°48' E 035°10'0 0.0
2017-Jul-12 18:30N 47°48' E 035°10'0 0.0
2017-Jul-12 18:00N 47°48' E 035°10'1 2.0
2017-Jul-12 17:30N 47°47' E 035°10'3 6.1
2017-Jul-12 17:00N 47°44' E 035°10'3 5.5
2017-Jul-12 16:30N 47°42' E 035°08'3 5.4
2017-Jul-12 16:00N 47°39' E 035°07'3 5.0
2017-Jul-12 15:30N 47°38' E 035°04'2 4.8
2017-Jul-12 15:00N 47°35' E 035°03'9 4.8
2017-Jul-12 13:10N 47°32' E 034°51'2 5.1
2017-Jul-12 12:47N 47°31' E 034°48'35 4.4
2017-Jul-12 04:57N 47°20' E 033°60'2 5.0
2017-Jul-12 04:30N 47°18' E 033°58'2 5.0
2017-Jul-12 04:00N 47°16' E 033°56'3 5.1
2017-Jul-12 03:26N 47°13' E 033°54'2 5.4
2017-Jul-12 03:00N 47°11' E 033°53'3 5.4
2017-Jul-12 02:30N 47°09' E 033°51'3 5.4
2017-Jul-12 01:54N 47°06' E 033°48'2 5.2
2017-Jul-12 01:28N 47°04' E 033°46'4 5.3
2017-Jul-12 00:46N 47°01' E 033°43'12 5.0
2017-Jul-11 22:20N 46°51' E 033°33'2 5.1
2017-Jul-11 22:00N 46°50' E 033°31'3 5.2
2017-Jul-11 21:31N 46°49' E 033°27'3 5.0
2017-Jul-11 21:00N 46°48' E 033°25'2 3.6
2017-Jul-11 20:31N 46°47' E 033°23'35 2.1
2017-Jul-11 03:36N 46°36' E 032°34'2 5.5
2017-Jul-11 03:16N 46°36' E 032°31'3 5.4
2017-Jul-11 02:43N 46°34' E 032°27'1 4.8
2017-Jul-11 02:30N 46°33' E 032°26'0 0.1
2017-Jul-11 02:00N 46°33' E 032°26'0 0.1
2017-Jul-11 01:30N 46°33' E 032°26'0 0.0
2017-Jul-11 00:57N 46°33' E 032°26'0 0.0
2017-Jul-11 00:01N 46°33' E 032°26'0 0.0
2017-Jul-11 00:00N 46°33' E 032°26'0 0.0
2017-Jul-10 23:19N 46°33' E 032°26'3 0.7
2017-Jul-10 19:20N 46°33' E 032°22'2 5.6
2017-Jul-10 18:56N 46°33' E 032°19'8 5.0
2017-Jul-10 17:26N 46°32' E 032°08'7 0.7
2017-Jul-10 06:18N 46°34' E 031°58'1 5.0
2017-Jul-10 06:01N 46°34' E 031°56'2 5.0
2017-Jul-10 05:31N 46°35' E 031°52'3 5.2
2017-Jul-10 04:51N 46°36' E 031°47'2 6.4
2017-Jul-10 04:30N 46°36' E 031°44'3 6.2
2017-Jul-10 04:00N 46°36' E 031°40'3 6.2
2017-Jul-10 03:30N 46°35' E 031°35'3 5.7
2017-Jul-10 03:00N 46°35' E 031°31'2 4.1
2017-Jul-10 02:31N 46°35' E 031°28'  

Dump ship's entire track history